Time;durP1;ratioP1;P1;durP2;ratioP2;P2;SDS_P1;SDS_P2;PMS_P1;PMS_P2;Temp;Humidity;BMP_temperature;BMP_pressure;BME280_temperature;BME280_humidity;BME280_pressure;Samples;Min_cycle;Max_cycle;Signal;HPM_P1;HPM_P2
2021/07/15 00:00:00;;;;;;;5.87;3.20;;;;;;;21.48;69.45;99840.56;153975;1100;103218;-73
2021/07/15 00:03:08;;;;;;;5.70;3.07;;;;;;;21.44;69.74;99847.53;153999;1093;103231;-73
2021/07/15 00:06:15;;;;;;;5.57;3.87;;;;;;;21.45;69.71;99851.91;154012;1100;103100;-76
2021/07/15 00:09:20;;;;;;;7.97;4.00;;;;;;;21.48;69.81;99846.84;153946;1094;103390;-73
2021/07/15 00:12:26;;;;;;;6.97;3.10;;;;;;;21.55;69.72;99858.39;153996;1100;103192;-75
2021/07/15 00:15:33;;;;;;;6.27;3.37;;;;;;;21.59;69.73;99847.89;153942;1093;103091;-74
2021/07/15 00:18:40;;;;;;;6.27;3.57;;;;;;;21.63;69.61;99821.10;153967;1100;103224;-73
2021/07/15 00:21:46;;;;;;;5.93;2.87;;;;;;;21.62;69.62;99843.91;154022;1100;103188;-75
2021/07/15 00:24:52;;;;;;;5.73;3.13;;;;;;;21.65;69.88;99830.69;153958;1100;103366;-74
2021/07/15 00:27:57;;;;;;;7.17;3.03;;;;;;;21.71;69.74;99812.59;153997;1094;103519;-74
2021/07/15 00:31:03;;;;;;;7.30;4.60;;;;;;;21.73;69.56;99827.60;153967;1100;103184;-73
2021/07/15 00:34:09;;;;;;;7.57;4.93;;;;;;;21.71;69.73;99831.59;153967;1093;103618;-73
2021/07/15 00:37:14;;;;;;;7.60;5.23;;;;;;;21.68;69.68;99813.09;153972;1100;103126;-72
2021/07/15 00:40:20;;;;;;;10.27;5.73;;;;;;;21.65;69.67;99803.53;153975;1093;103291;-74
2021/07/15 00:43:25;;;;;;;10.47;5.70;;;;;;;21.65;69.66;99786.39;153933;1100;103553;-71
2021/07/15 00:46:30;;;;;;;7.10;5.37;;;;;;;21.64;69.73;99773.90;154050;1100;103198;-73
2021/07/15 00:49:35;;;;;;;5.93;5.00;;;;;;;21.64;69.71;99785.58;153968;1100;103190;-71
2021/07/15 00:52:42;;;;;;;8.70;4.93;;;;;;;21.62;69.74;99776.03;153857;1100;103124;-71
2021/07/15 00:55:47;;;;;;;8.27;4.17;;;;;;;21.57;69.63;99765.86;153824;1093;103262;-71
2021/07/15 00:58:53;;;;;;;5.10;3.00;;;;;;;21.52;69.67;99772.02;153850;1100;103192;-72
2021/07/15 01:01:58;;;;;;;4.50;2.50;;;;;;;21.50;69.78;99795.04;153863;1100;103553;-73
2021/07/15 01:05:06;;;;;;;4.77;2.37;;;;;;;21.47;69.68;99801.75;153778;1100;103192;-72
2021/07/15 01:08:12;;;;;;;5.63;2.60;;;;;;;21.47;69.81;99796.31;153965;1094;103310;-71
2021/07/15 01:11:31;;;;;;;7.80;3.00;;;;;;;21.46;69.76;99778.39;153971;1093;103244;-72
2021/07/15 01:14:44;;;;;;;7.00;3.00;;;;;;;21.46;69.67;99777.55;153869;1100;103238;-73
2021/07/15 01:17:58;;;;;;;8.37;3.90;;;;;;;21.37;69.86;99774.34;154019;1093;103560;-73
2021/07/15 01:21:20;;;;;;;5.13;2.90;;;;;;;21.12;70.17;99769.95;153976;1093;103121;-73
2021/07/15 01:25:02;;;;;;;6.20;2.60;;;;;;;20.98;70.24;99771.25;154046;1094;103091;-73
2021/07/15 01:28:11;;;;;;;3.77;2.17;;;;;;;21.06;70.29;99784.47;153972;1093;103227;-74
2021/07/15 01:31:18;;;;;;;3.63;2.50;;;;;;;21.15;70.47;99799.34;154078;1100;103183;-74
2021/07/15 01:34:24;;;;;;;4.50;2.50;;;;;;;21.18;70.56;99827.89;154023;1100;103557;-74
2021/07/15 01:37:31;;;;;;;4.80;3.10;;;;;;;21.23;70.55;100019.83;154014;1094;103128;-73
2021/07/15 01:40:44;;;;;;;5.37;2.90;;;;;;;21.15;70.73;100078.80;153993;1100;103128;-71
2021/07/15 01:43:52;;;;;;;9.33;2.80;;;;;;;21.10;70.74;99993.72;153966;1093;103199;-72
2021/07/15 01:46:58;;;;;;;6.70;3.47;;;;;;;21.12;71.06;100098.23;153876;1094;103115;-72
2021/07/15 01:50:04;;;;;;;8.25;3.10;;;;;;;21.12;70.95;100068.39;153858;1100;103199;-71
2021/07/15 01:53:10;;;;;;;7.97;2.70;;;;;;;21.14;70.98;100041.04;154006;1100;103135;-71
2021/07/15 01:56:16;;;;;;;6.43;2.10;;;;;;;21.17;70.74;100025.14;153866;1100;103115;-71
2021/07/15 01:59:25;;;;;;;5.90;3.00;;;;;;;21.23;70.78;100038.83;153858;1094;103278;-72
2021/07/15 02:02:30;;;;;;;6.80;2.63;;;;;;;21.31;70.72;100028.50;153944;1093;103135;-74
2021/07/15 02:05:36;;;;;;;6.97;2.43;;;;;;;21.36;70.76;100041.37;154045;1100;103101;-72
2021/07/15 02:08:42;;;;;;;7.47;2.67;;;;;;;21.39;70.68;100005.64;153999;1100;103200;-73
2021/07/15 02:11:50;;;;;;;5.23;3.00;;;;;;;21.41;70.74;99992.66;154003;1100;103101;-75
2021/07/15 02:14:57;;;;;;;7.27;2.43;;;;;;;21.24;70.91;99946.34;153949;1100;103269;-74
2021/07/15 02:18:03;;;;;;;13.23;2.60;;;;;;;21.08;71.26;99911.73;153983;1100;103217;-75
2021/07/15 02:21:08;;;;;;;3.73;2.30;;;;;;;21.03;71.32;99892.60;153996;1100;103576;-73
2021/07/15 02:24:16;;;;;;;6.23;2.87;;;;;;;21.08;71.59;99852.88;153827;1093;103101;-74
2021/07/15 02:27:21;;;;;;;4.70;2.40;;;;;;;21.05;71.46;99842.48;154041;1100;103179;-73
2021/07/15 02:30:26;;;;;;;6.90;2.60;;;;;;;21.11;71.91;99887.69;153969;1100;103186;-74
2021/07/15 02:33:33;;;;;;;4.23;2.70;;;;;;;21.17;71.50;99884.05;153959;1100;103096;-75
2021/07/15 02:36:40;;;;;;;6.80;2.70;;;;;;;21.22;71.53;99858.91;153983;1100;103187;-74
2021/07/15 02:39:45;;;;;;;5.80;2.13;;;;;;;21.24;71.45;99837.80;154150;1100;103187;-74
2021/07/15 02:42:50;;;;;;;6.80;2.30;;;;;;;21.22;71.51;99834.50;153980;1093;103233;-74
2021/07/15 02:45:55;;;;;;;5.77;2.00;;;;;;;21.20;71.62;99828.48;153962;1094;103298;-75
2021/07/15 02:49:00;;;;;;;5.03;2.00;;;;;;;21.16;71.35;99800.98;154008;1100;103192;-73
2021/07/15 02:52:06;;;;;;;8.03;2.13;;;;;;;21.12;71.64;99794.38;154004;1093;103221;-73
2021/07/15 02:55:14;;;;;;;5.00;1.80;;;;;;;21.10;71.74;99796.50;153937;1100;103133;-72
2021/07/15 02:58:25;;;;;;;5.47;3.17;;;;;;;21.11;71.78;99819.02;154038;1100;103203;-71
2021/07/15 03:01:36;;;;;;;7.65;2.60;;;;;;;21.12;71.75;99835.07;153955;1100;103116;-71
2021/07/15 03:04:47;;;;;;;7.08;2.73;;;;;;;21.10;71.86;99825.52;153944;1100;103129;-69
2021/07/15 03:07:57;;;;;;;5.25;2.20;;;;;;;21.08;71.92;99812.19;153800;1100;103256;-72
2021/07/15 03:11:05;;;;;;;5.25;2.25;;;;;;;21.13;71.93;99825.04;153967;1100;103096;-73
2021/07/15 03:14:10;;;;;;;8.50;2.70;;;;;;;21.13;72.08;99839.45;154050;1100;103064;-70
2021/07/15 03:17:19;;;;;;;5.97;2.67;;;;;;;21.10;72.18;99834.48;156372;1093;103297;-71
2021/07/15 03:20:30;;;;;;;8.23;3.00;;;;;;;21.09;72.17;99838.23;153798;1094;103131;-70
2021/07/15 03:23:38;;;;;;;5.65;2.70;;;;;;;21.11;72.17;99852.42;153855;1093;103216;-70
2021/07/15 03:26:46;;;;;;;5.27;2.40;;;;;;;21.10;72.28;99845.33;153796;1093;103135;-70
2021/07/15 03:29:54;;;;;;;5.97;2.87;;;;;;;21.11;72.12;99851.58;153934;1100;103569;-70
2021/07/15 03:32:59;;;;;;;8.77;2.67;;;;;;;21.11;72.23;99868.70;153818;1100;103192;-71
2021/07/15 03:36:08;;;;;;;9.07;3.70;;;;;;;21.07;72.19;99856.63;153882;1100;103129;-71
2021/07/15 03:39:15;;;;;;;9.80;3.30;;;;;;;21.03;72.44;99874.44;153832;1100;103127;-70
2021/07/15 03:42:22;;;;;;;7.40;3.07;;;;;;;20.98;72.18;99879.75;153828;1100;103120;-70
2021/07/15 03:45:27;;;;;;;7.43;2.63;;;;;;;20.97;72.20;99880.79;153860;1100;103114;-70
2021/07/15 03:48:33;;;;;;;8.23;2.57;;;;;;;21.01;72.42;99895.55;153849;1100;103263;-69
2021/07/15 03:51:39;;;;;;;7.30;4.07;;;;;;;21.02;72.30;99897.21;153906;1100;103474;-74
2021/07/15 03:54:46;;;;;;;10.30;3.30;;;;;;;20.97;72.25;99881.61;154004;1100;103573;-72
2021/07/15 03:57:52;;;;;;;9.35;3.30;;;;;;;20.95;72.52;99869.34;154060;1100;103269;-72
2021/07/15 04:01:02;;;;;;;8.30;2.90;;;;;;;20.93;72.32;99871.46;153955;1100;103141;-74
2021/07/15 04:04:09;;;;;;;8.73;2.70;;;;;;;20.96;72.33;99849.31;153987;1093;103368;-78
2021/07/15 04:07:18;;;;;;;11.43;2.93;;;;;;;20.98;72.27;99849.91;153997;1100;103112;-74
2021/07/15 04:10:23;;;;;;;7.30;3.00;;;;;;;20.98;72.38;99820.08;153960;1094;103193;-75
2021/07/15 04:13:30;;;;;;;12.33;3.10;;;;;;;20.98;72.13;99799.20;153991;1098;103129;-73
2021/07/15 04:16:46;;;;;;;5.17;2.93;;;;;;;20.99;72.31;99794.59;154032;1100;103117;-74
2021/07/15 04:19:52;;;;;;;11.13;3.20;;;;;;;21.02;72.45;99810.41;153949;1093;103266;-74
2021/07/15 04:23:00;;;;;;;11.00;3.25;;;;;;;21.03;72.25;99806.63;153991;1093;103141;-73
2021/07/15 04:26:07;;;;;;;9.27;3.63;;;;;;;21.07;72.31;99801.56;153988;1100;103132;-75
2021/07/15 04:29:13;;;;;;;10.73;3.50;;;;;;;21.07;72.44;99788.81;153949;1100;103100;-74
2021/07/15 04:32:26;;;;;;;11.40;3.30;;;;;;;21.09;72.36;99773.13;154022;1100;103496;-74
2021/07/15 04:35:34;;;;;;;7.47;3.00;;;;;;;21.10;72.39;99772.08;153975;1100;103291;-73
2021/07/15 04:38:40;;;;;;;10.83;3.53;;;;;;;21.08;72.42;99800.52;154018;1100;103153;-74
2021/07/15 04:41:46;;;;;;;8.10;2.80;;;;;;;21.09;72.60;99794.02;153988;1094;103135;-75
2021/07/15 04:44:52;;;;;;;9.83;2.80;;;;;;;21.15;72.57;99780.36;153932;1100;103101;-73
2021/07/15 04:47:59;;;;;;;9.07;2.90;;;;;;;21.20;72.51;99778.82;153985;1100;103144;-74
2021/07/15 04:51:06;;;;;;;11.40;3.70;;;;;;;21.24;72.60;99780.00;153991;1100;103557;-74
2021/07/15 04:54:13;;;;;;;9.30;3.43;;;;;;;21.22;72.62;99788.38;154016;1100;103133;-74
2021/07/15 04:57:19;;;;;;;9.73;3.30;;;;;;;21.22;72.66;99817.40;153942;1100;103243;-74
2021/07/15 05:00:26;;;;;;;9.57;3.20;;;;;;;21.24;72.62;99817.98;153949;1093;103219;-74
2021/07/15 05:03:34;;;;;;;9.95;3.30;;;;;;;21.28;72.59;99802.89;154053;1093;103220;-74
2021/07/15 05:06:39;;;;;;;14.30;3.75;;;;;;;21.30;72.41;99773.63;153981;1094;103224;-73
2021/07/15 05:09:44;;;;;;;9.80;3.63;;;;;;;21.30;72.68;99765.48;153978;1100;103143;-74
2021/07/15 05:12:49;;;;;;;7.63;2.80;;;;;;;21.31;72.58;99756.30;153963;1100;103524;-74
2021/07/15 05:15:55;;;;;;;7.73;2.77;;;;;;;21.33;72.88;99754.17;153954;1100;103576;-73
2021/07/15 05:19:00;;;;;;;6.97;2.93;;;;;;;21.37;72.74;99756.16;153952;1100;103275;-73
2021/07/15 05:22:05;;;;;;;10.43;3.10;;;;;;;21.43;72.94;99751.68;153969;1094;103312;-73
2021/07/15 05:25:12;;;;;;;9.43;3.37;;;;;;;21.46;72.44;99762.11;154104;1100;103122;-74
2021/07/15 05:28:17;;;;;;;7.43;3.07;;;;;;;21.47;72.74;99779.21;153965;1094;103230;-73
2021/07/15 05:31:22;;;;;;;8.50;3.20;;;;;;;21.51;72.70;99775.78;153952;1094;103106;-74
2021/07/15 05:34:27;;;;;;;6.43;2.33;;;;;;;21.58;72.62;99769.42;153994;1100;103262;-73
2021/07/15 05:37:32;;;;;;;9.10;2.97;;;;;;;21.62;72.57;99754.30;153987;1100;103301;-73
2021/07/15 05:40:37;;;;;;;6.23;2.50;;;;;;;21.65;72.49;99732.09;153977;1100;103203;-73
2021/07/15 05:43:42;;;;;;;6.20;2.30;;;;;;;21.64;72.21;99714.16;154085;1100;103154;-73
2021/07/15 05:46:47;;;;;;;7.87;2.40;;;;;;;21.65;72.57;99710.37;153992;1100;103125;-73
2021/07/15 05:49:52;;;;;;;7.23;2.73;;;;;;;21.73;72.57;99691.02;153971;1100;103217;-74
2021/07/15 05:52:57;;;;;;;5.93;2.03;;;;;;;21.81;72.19;99651.79;153977;1093;103471;-73
2021/07/15 05:56:02;;;;;;;11.30;3.07;;;;;;;21.81;72.34;99647.17;153976;1093;103096;-73
2021/07/15 05:59:07;;;;;;;7.70;2.30;;;;;;;21.85;72.32;99623.89;153871;1100;103200;-73
2021/07/15 06:02:12;;;;;;;5.47;2.47;;;;;;;21.92;72.33;99621.02;153985;1093;103125;-73
2021/07/15 06:05:17;;;;;;;5.93;2.53;;;;;;;21.97;72.61;99651.00;153963;1100;103187;-73
2021/07/15 06:08:22;;;;;;;6.40;2.20;;;;;;;22.05;72.71;99636.20;154029;1094;103416;-72
2021/07/15 06:11:27;;;;;;;7.20;1.97;;;;;;;22.09;72.36;99648.22;153919;1100;103193;-72
2021/07/15 06:14:32;;;;;;;7.40;2.55;;;;;;;22.16;72.73;99682.33;154142;1098;103187;-73
2021/07/15 06:17:37;;;;;;;4.90;2.20;;;;;;;22.33;72.57;99684.30;154099;1093;103128;-73
2021/07/15 06:20:42;;;;;;;4.33;2.47;;;;;;;22.50;72.48;99665.30;154202;1098;103193;-72
2021/07/15 06:23:47;;;;;;;7.85;3.35;;;;;;;22.66;72.65;99688.94;153978;1100;103264;-72
2021/07/15 06:26:52;;;;;;;8.27;3.60;;;;;;;22.78;72.38;99701.64;154046;1093;103128;-72
2021/07/15 06:29:57;;;;;;;5.33;2.50;;;;;;;22.94;72.29;99730.72;153988;1100;103197;-73
2021/07/15 06:33:02;;;;;;;6.23;2.63;;;;;;;23.13;72.74;99751.22;153965;1094;103240;-73
2021/07/15 06:36:09;;;;;;;8.03;2.70;;;;;;;23.39;72.74;99772.56;154033;1099;103130;-72
2021/07/15 06:39:15;;;;;;;5.47;2.30;;;;;;;23.67;72.44;99779.75;153987;1100;103270;-72
2021/07/15 06:42:20;;;;;;;4.17;1.90;;;;;;;23.91;72.10;99792.11;154005;1100;103196;-72
2021/07/15 06:45:25;;;;;;;6.50;2.47;;;;;;;24.04;72.21;99785.47;153915;1100;103122;-72
2021/07/15 06:48:30;;;;;;;6.60;2.10;;;;;;;24.13;71.42;99791.28;154001;1100;103152;-73
2021/07/15 06:51:35;;;;;;;6.35;2.10;;;;;;;24.16;71.39;99779.88;154108;1098;103117;-73
2021/07/15 06:54:40;;;;;;;4.60;2.40;;;;;;;24.23;71.29;99782.40;154571;1098;103208;-73
2021/07/15 06:57:47;;;;;;;6.27;2.53;;;;;;;24.29;71.40;99770.50;154698;1098;103206;-73
2021/07/15 07:00:52;;;;;;;3.83;2.10;;;;;;;24.35;71.41;99761.29;154254;1098;103125;-73
2021/07/15 07:03:57;;;;;;;5.13;2.20;;;;;;;24.37;71.37;99755.59;154076;1098;103125;-73
2021/07/15 07:07:02;;;;;;;3.97;2.00;;;;;;;24.41;70.76;99749.35;153958;1093;103121;-73
2021/07/15 07:10:10;;;;;;;4.40;2.27;;;;;;;24.45;70.64;99749.66;153963;1091;103087;-72
2021/07/15 07:13:15;;;;;;;4.47;2.13;;;;;;;24.47;70.59;99751.05;154161;1100;103282;-72
2021/07/15 07:16:20;;;;;;;4.33;2.40;;;;;;;24.50;70.87;99744.27;153968;1093;103126;-72
2021/07/15 07:19:25;;;;;;;5.80;2.60;;;;;;;24.57;70.91;99742.17;153943;1093;103122;-72
2021/07/15 07:22:30;;;;;;;4.60;2.10;;;;;;;24.72;70.75;99740.68;153932;1100;103154;-72
2021/07/15 07:25:35;;;;;;;6.33;2.67;;;;;;;24.94;70.93;99754.22;154088;1093;103183;-73
2021/07/15 07:28:40;;;;;;;4.60;2.03;;;;;;;25.10;70.63;99742.36;154002;1093;103119;-73
2021/07/15 07:31:47;;;;;;;4.57;2.20;;;;;;;25.29;70.33;99740.06;154101;1100;103206;-73
2021/07/15 07:34:52;;;;;;;4.90;2.23;;;;;;;25.47;69.92;99742.34;153966;1093;103179;-72
2021/07/15 07:37:59;;;;;;;4.57;2.53;;;;;;;25.55;69.83;99745.67;153966;1100;103112;-73
2021/07/15 07:41:04;;;;;;;4.30;2.23;;;;;;;25.50;69.94;99762.88;154083;1093;103240;-73
2021/07/15 07:44:10;;;;;;;4.57;2.13;;;;;;;25.40;69.82;99779.98;154178;1099;103187;-73
2021/07/15 07:47:16;;;;;;;3.50;2.10;;;;;;;25.31;69.55;99780.73;153952;1093;103213;-72
2021/07/15 07:50:22;;;;;;;7.47;2.40;;;;;;;25.23;69.78;99798.44;153925;1093;103130;-72
2021/07/15 07:53:28;;;;;;;6.13;2.00;;;;;;;25.24;69.99;99830.95;154350;1100;103147;-73
2021/07/15 07:56:33;;;;;;;3.90;2.10;;;;;;;25.33;69.81;99852.30;154013;1100;103240;-74
2021/07/15 07:59:38;;;;;;;4.60;2.37;;;;;;;25.49;69.69;99864.20;154019;1100;103187;-72
2021/07/15 08:02:44;;;;;;;10.10;2.95;;;;;;;25.63;69.26;99881.77;154119;1098;103118;-72
2021/07/15 08:05:49;;;;;;;4.77;2.40;;;;;;;25.75;69.48;99876.97;154319;1099;103126;-73
2021/07/15 08:08:55;;;;;;;6.70;2.90;;;;;;;25.98;69.10;99883.13;154245;1098;103141;-72
2021/07/15 08:12:00;;;;;;;4.17;2.50;;;;;;;26.11;68.72;99893.59;153987;1094;103272;-72
2021/07/15 08:15:06;;;;;;;4.83;2.40;;;;;;;26.21;68.54;99907.34;154002;1100;103128;-73
2021/07/15 08:18:11;;;;;;;4.57;2.87;;;;;;;26.22;68.28;99900.77;154048;1098;103240;-73
2021/07/15 08:21:19;;;;;;;4.13;2.50;;;;;;;26.15;68.10;99900.18;154131;1098;103209;-72
2021/07/15 08:24:24;;;;;;;6.00;2.83;;;;;;;26.12;68.04;99869.83;154445;1098;103166;-72
2021/07/15 08:27:29;;;;;;;5.40;3.27;;;;;;;25.98;68.03;99883.13;154536;1098;103252;-72
2021/07/15 08:30:35;;;;;;;7.43;3.00;;;;;;;25.75;67.97;99876.12;154283;1098;103198;-73
2021/07/15 08:33:40;;;;;;;5.87;3.27;;;;;;;25.57;68.32;99912.88;153975;1093;103544;-73
2021/07/15 08:36:45;;;;;;;6.37;3.17;;;;;;;25.36;68.02;99915.42;153915;1100;103144;-73
2021/07/15 08:39:50;;;;;;;5.87;3.30;;;;;;;25.20;67.89;99911.70;154447;1098;103211;-73
2021/07/15 08:42:55;;;;;;;7.67;3.20;;;;;;;25.06;68.18;99930.41;154608;1098;103281;-73
2021/07/15 08:46:02;;;;;;;5.47;3.17;;;;;;;24.92;68.42;99929.15;154669;1098;103214;-73
2021/07/15 08:49:09;;;;;;;6.37;3.10;;;;;;;24.79;68.50;99904.98;154766;1093;103492;-72
2021/07/15 08:52:16;;;;;;;7.47;4.63;;;;;;;24.64;68.83;99890.10;154669;1093;103104;-72
2021/07/15 08:58:44;;;;;;;9.20;3.77;;;;;;;24.36;68.99;99917.53;154601;1093;103139;-72
2021/07/15 09:01:51;;;;;;;7.73;3.43;;;;;;;24.24;69.21;99947.64;154694;1098;103179;-72
2021/07/15 09:04:56;;;;;;;6.40;3.43;;;;;;;24.17;69.42;99961.44;154615;1093;103121;-73
2021/07/15 09:08:02;;;;;;;5.63;3.50;;;;;;;24.11;69.55;99959.72;154581;1093;103125;-72
2021/07/15 09:11:07;;;;;;;5.97;3.43;;;;;;;24.05;69.92;99966.17;154658;1098;103097;-72
2021/07/15 09:14:18;;;;;;;5.93;4.00;;;;;;;24.01;69.72;99971.29;154595;1094;103205;-73
2021/07/15 09:17:31;;;;;;;5.95;3.30;;;;;;;24.02;70.32;99996.64;154723;1098;103189;-74
2021/07/15 09:20:36;;;;;;;6.67;3.27;;;;;;;24.07;69.96;100000.27;154411;1093;103120;-72
2021/07/15 09:23:41;;;;;;;6.07;4.00;;;;;;;24.21;70.38;99994.48;154269;1094;103192;-72
2021/07/15 09:26:47;;;;;;;7.85;4.15;;;;;;;24.35;70.37;100011.34;154299;1093;103187;-75
2021/07/15 09:30:09;;;;;;;7.30;4.10;;;;;;;24.47;70.21;100006.59;154654;1093;103231;-73
2021/07/15 09:33:16;;;;;;;6.33;4.07;;;;;;;24.51;69.96;100007.77;154396;1098;103217;-73
2021/07/15 09:36:24;;;;;;;6.17;4.73;;;;;;;24.48;70.42;99992.72;154066;1100;103157;-73
2021/07/15 09:39:30;;;;;;;8.20;4.30;;;;;;;24.43;70.12;99994.55;154290;1093;103125;-72
2021/07/15 09:42:35;;;;;;;7.00;3.97;;;;;;;24.40;70.06;99984.13;154428;1093;103144;-73
2021/07/15 09:45:40;;;;;;;6.97;4.47;;;;;;;24.35;69.68;99975.89;154169;1098;103195;-72
2021/07/15 09:48:47;;;;;;;7.93;4.13;;;;;;;24.30;70.08;99977.44;154709;1093;103509;-73
2021/07/15 09:51:57;;;;;;;6.33;4.00;;;;;;;24.22;69.98;99955.25;154554;1098;103153;-72
2021/07/15 09:55:22;;;;;;;5.37;4.30;;;;;;;24.04;70.23;99943.55;154288;1098;103128;-72
2021/07/15 09:58:31;;;;;;;7.40;3.93;;;;;;;24.17;69.83;99960.62;154420;1093;103181;-73
2021/07/15 10:01:43;;;;;;;6.47;4.13;;;;;;;24.19;69.77;99958.47;154222;1093;103212;-72
2021/07/15 10:04:53;;;;;;;8.20;4.30;;;;;;;24.20;70.03;99952.77;154464;1098;103149;-73
2021/07/15 10:08:09;;;;;;;8.97;4.40;;;;;;;24.25;70.22;99950.13;154195;1093;103108;-73
2021/07/15 10:11:20;;;;;;;6.65;4.75;;;;;;;24.28;70.43;99935.97;154103;1100;103519;-72
2021/07/15 10:14:35;;;;;;;7.05;4.25;;;;;;;24.35;70.15;99933.08;154007;1100;103187;-73
2021/07/15 10:17:45;;;;;;;5.47;4.00;;;;;;;24.43;70.34;99956.36;153979;1100;103293;-73
2021/07/15 10:20:57;;;;;;;8.93;4.47;;;;;;;24.42;70.35;99969.19;154009;1100;103189;-73
2021/07/15 10:24:16;;;;;;;9.63;5.30;;;;;;;24.39;70.09;99966.13;153948;1099;103074;-73
2021/07/15 10:27:23;;;;;;;7.33;4.90;;;;;;;24.27;70.06;99958.06;153915;1093;103136;-76
2021/07/15 10:30:29;;;;;;;9.10;5.00;;;;;;;24.11;70.20;99954.27;154044;1100;103550;-72
2021/07/15 10:33:35;;;;;;;9.50;5.80;;;;;;;23.98;70.49;99952.73;153960;1100;103271;-72
2021/07/15 10:36:41;;;;;;;6.50;4.67;;;;;;;23.87;70.78;99962.63;153976;1100;103207;-72
2021/07/15 10:39:49;;;;;;;6.90;4.27;;;;;;;23.80;70.70;99947.52;153959;1093;103189;-73
2021/07/15 10:42:55;;;;;;;9.90;6.03;;;;;;;23.68;70.43;99942.95;154007;1100;103129;-73
2021/07/15 10:46:02;;;;;;;9.67;6.27;;;;;;;23.49;71.05;99931.46;154081;1100;103153;-72
2021/07/15 10:49:09;;;;;;;10.43;5.47;;;;;;;23.40;70.97;99943.83;154011;1100;103211;-73
2021/07/15 10:52:18;;;;;;;9.37;5.60;;;;;;;23.36;71.22;99942.67;154059;1100;103192;-72
2021/07/15 10:55:25;;;;;;;6.53;5.30;;;;;;;23.37;71.43;99941.61;154012;1093;103139;-73
2021/07/15 10:58:47;;;;;;;7.50;4.67;;;;;;;23.41;71.50;99950.94;153923;1100;103122;-72
2021/07/15 11:01:53;;;;;;;8.67;5.30;;;;;;;23.43;71.83;99956.95;154082;1100;103152;-72
2021/07/15 11:04:57;;;;;;;9.60;5.53;;;;;;;23.46;71.33;99958.35;153982;1093;103269;-73
2021/07/15 11:08:03;;;;;;;7.80;5.90;;;;;;;23.48;71.98;99967.95;154019;1093;103154;-72
2021/07/15 11:11:08;;;;;;;7.80;4.87;;;;;;;23.58;72.07;99944.70;154051;1100;103240;-72
2021/07/15 11:14:40;;;;;;;9.87;5.40;;;;;;;23.71;71.44;99931.56;153970;1100;103200;-72
2021/07/15 11:17:48;;;;;;;8.40;5.83;;;;;;;23.91;71.42;99916.64;153854;1100;103200;-72
2021/07/15 11:20:53;;;;;;;14.27;6.30;;;;;;;24.10;72.06;99893.48;153977;1091;103281;-72
2021/07/15 11:24:37;;;;;;;8.33;5.77;;;;;;;24.33;71.54;99896.21;153862;1100;103200;-72
2021/07/15 11:27:45;;;;;;;7.93;5.97;;;;;;;24.55;70.96;99894.35;153823;1100;103091;-72
2021/07/15 11:30:53;;;;;;;7.00;5.05;;;;;;;24.75;70.50;99879.30;153836;1094;103245;-72
2021/07/15 11:33:58;;;;;;;8.50;5.33;;;;;;;25.01;70.60;99870.30;153925;1100;103132;-72
2021/07/15 11:37:35;;;;;;;8.45;5.38;;;;;;;25.22;70.17;99860.42;153961;1093;103202;-74
2021/07/15 11:40:51;;;;;;;9.00;5.80;;;;;;;25.40;70.27;99855.65;154375;1093;103421;-72
2021/07/15 11:43:57;;;;;;;7.53;5.37;;;;;;;25.38;69.67;99864.09;154563;1093;103133;-72
2021/07/15 11:47:02;;;;;;;10.10;6.17;;;;;;;25.35;69.88;99855.63;154643;1098;103138;-72
2021/07/15 11:50:29;;;;;;;8.97;5.60;;;;;;;25.57;70.25;99867.25;154647;1093;103252;-72
2021/07/15 11:53:34;;;;;;;8.70;5.63;;;;;;;25.94;70.11;99871.08;154043;1098;103218;-72
2021/07/15 11:56:39;;;;;;;8.07;4.93;;;;;;;26.32;69.62;99880.03;154105;1093;103208;-72
2021/07/15 11:59:46;;;;;;;8.20;5.50;;;;;;;26.67;69.04;99889.50;153980;1100;103275;-72
2021/07/15 12:02:58;;;;;;;7.43;5.50;;;;;;;26.95;68.71;99897.24;154662;1098;103096;-72
2021/07/15 12:06:13;;;;;;;8.43;5.17;;;;;;;27.14;68.73;99889.34;154697;1098;103170;-72
2021/07/15 12:09:18;;;;;;;7.43;5.40;;;;;;;27.18;67.08;99895.09;154530;1098;103363;-72
2021/07/15 12:12:24;;;;;;;9.23;5.93;;;;;;;27.02;67.57;99896.97;154032;1100;103105;-72
2021/07/15 12:15:30;;;;;;;8.27;5.60;;;;;;;26.97;67.41;99897.80;153972;1093;103538;-72
2021/07/15 12:18:38;;;;;;;12.33;5.80;;;;;;;27.08;66.74;99889.58;154006;1100;103189;-73
2021/07/15 12:21:44;;;;;;;6.07;5.23;;;;;;;27.18;67.44;99895.91;154039;1100;103308;-72
2021/07/15 12:24:52;;;;;;;8.73;5.43;;;;;;;27.13;65.58;99895.08;153975;1100;103393;-72
2021/07/15 12:28:00;;;;;;;9.17;5.33;;;;;;;27.07;66.61;99891.52;154138;1098;103218;-72
2021/07/15 12:31:07;;;;;;;9.20;6.10;;;;;;;26.98;65.31;99891.23;154120;1093;103219;-73
2021/07/15 12:34:13;;;;;;;7.90;5.57;;;;;;;27.02;66.11;99900.55;154400;1098;103101;-72
2021/07/15 12:37:18;;;;;;;8.80;5.70;;;;;;;27.38;66.31;99888.83;154346;1093;103137;-72
2021/07/15 12:40:30;;;;;;;8.57;6.10;;;;;;;27.81;65.36;99881.95;154223;1098;103297;-72
2021/07/15 12:43:44;;;;;;;9.27;6.50;;;;;;;27.89;63.40;99860.56;154394;1093;103134;-72
2021/07/15 12:46:52;;;;;;;9.27;6.40;;;;;;;27.74;63.54;99839.48;154535;1098;103142;-73
2021/07/15 12:49:57;;;;;;;9.23;6.47;;;;;;;27.72;63.34;99830.71;154621;1098;103243;-72
2021/07/15 12:53:25;;;;;;;9.63;6.37;;;;;;;27.57;63.58;99831.55;154599;1093;103346;-72
2021/07/15 12:56:30;;;;;;;9.90;6.40;;;;;;;27.50;63.32;99820.86;154525;1098;103646;-72
2021/07/15 12:59:36;;;;;;;9.37;6.37;;;;;;;27.29;63.31;99814.61;154398;1094;103189;-73
2021/07/15 13:02:41;;;;;;;7.10;6.10;;;;;;;27.20;64.69;99835.39;154556;1098;103154;-72
2021/07/15 13:05:46;;;;;;;7.27;6.23;;;;;;;27.21;63.33;99828.80;154586;1093;103126;-72
2021/07/15 13:08:55;;;;;;;9.00;6.40;;;;;;;27.22;63.66;99816.76;154216;1093;103233;-72
2021/07/15 13:15:25;;;;;;;10.37;8.10;;;;;;;26.78;63.83;99800.85;154263;1093;103135;-72
2021/07/15 13:18:30;;;;;;;8.60;7.57;;;;;;;26.66;63.05;99805.73;154084;1093;103133;-72
2021/07/15 13:21:35;;;;;;;8.65;6.90;;;;;;;26.66;64.37;99836.69;154006;1100;103065;-72
2021/07/15 13:24:42;;;;;;;10.97;7.47;;;;;;;26.60;64.44;99835.03;154029;1100;103298;-72
2021/07/15 13:27:48;;;;;;;9.70;7.45;;;;;;;26.42;64.37;99828.09;153941;1100;103272;-72
2021/07/15 13:30:53;;;;;;;11.18;7.08;;;;;;;26.31;64.83;99816.31;154321;1098;103192;-72
2021/07/15 13:34:06;;;;;;;9.53;7.08;;;;;;;26.25;64.65;99799.06;154201;1098;103094;-72
2021/07/15 13:37:12;;;;;;;8.53;6.33;;;;;;;26.25;64.61;99801.80;154119;1093;103125;-73
2021/07/15 13:40:24;;;;;;;10.23;6.30;;;;;;;26.34;64.79;99804.00;154326;1098;103147;-73
2021/07/15 13:43:31;;;;;;;9.83;7.60;;;;;;;26.28;64.12;99810.55;154334;1098;103302;-73
2021/07/15 13:46:37;;;;;;;8.73;6.83;;;;;;;26.18;64.64;99801.21;154449;1098;103189;-72
2021/07/15 13:49:42;;;;;;;9.07;6.47;;;;;;;26.27;64.30;99815.20;154096;1100;103146;-72
2021/07/15 13:52:48;;;;;;;12.47;7.50;;;;;;;26.42;64.01;99817.96;153986;1093;103197;-72
2021/07/15 13:55:56;;;;;;;15.27;7.53;;;;;;;26.56;64.60;99826.51;154188;1100;103202;-72
2021/07/15 13:59:03;;;;;;;8.20;6.50;;;;;;;26.54;64.39;99819.64;154023;1093;103200;-72
2021/07/15 14:02:13;;;;;;;9.83;6.55;;;;;;;26.37;63.70;99817.97;153990;1093;103123;-72
2021/07/15 14:05:26;;;;;;;9.65;6.78;;;;;;;26.34;63.73;99821.23;153963;1100;103120;-71
2021/07/15 14:08:34;;;;;;;8.60;6.30;;;;;;;26.45;64.05;99819.36;153858;1100;103187;-70
2021/07/15 14:11:40;;;;;;;9.00;6.50;;;;;;;26.59;63.86;99825.98;153851;1093;103243;-70
2021/07/15 14:14:54;;;;;;;9.77;7.23;;;;;;;26.45;63.28;99833.03;153857;1100;103214;-72
2021/07/15 14:18:04;;;;;;;9.90;6.83;;;;;;;26.29;64.03;99829.44;153872;1093;103565;-71
2021/07/15 14:21:12;;;;;;;7.20;6.43;;;;;;;26.39;63.73;99828.64;153862;1100;103190;-70
2021/07/15 14:24:17;;;;;;;10.50;6.97;;;;;;;26.55;64.11;99837.72;153824;1100;103192;-70
2021/07/15 14:27:23;;;;;;;10.80;7.35;;;;;;;26.58;62.93;99838.00;154016;1093;103174;-74